Time;durP1;ratioP1;P1;durP2;ratioP2;P2;SDS_P1;SDS_P2;PMS_P1;PMS_P2;Temp;Humidity;BMP_temperature;BMP_pressure;BME280_temperature;BME280_humidity;BME280_pressure;Samples;Min_cycle;Max_cycle;Signal;HPM_P1;HPM_P2
2023/05/04 00:00:29;;;;;;;15.15;9.80;;;;;;;;;;5068643;28;20213;-63
2023/05/04 00:02:54;;;;;;;14.15;9.63;;;;;;;;;;5069392;28;20210;-63
2023/05/04 00:05:19;;;;;;;12.60;9.35;;;;;;;;;;5072166;28;20250;-63
2023/05/04 00:07:45;;;;;;;14.95;9.30;;;;;;;;;;5088871;28;20213;-61
2023/05/04 00:10:10;;;;;;;13.95;9.32;;;;;;;;;;5077380;28;20217;-62
2023/05/04 00:12:36;;;;;;;15.32;9.23;;;;;;;;;;5065362;28;20811;-62
2023/05/04 00:15:02;;;;;;;13.95;8.70;;;;;;;;;;5074699;28;20225;-61
2023/05/04 00:17:28;;;;;;;13.25;9.82;;;;;;;;;;5059771;28;20214;-62
2023/05/04 00:19:53;;;;;;;11.50;8.93;;;;;;;;;;5067679;28;20209;-62
2023/05/04 00:22:19;;;;;;;14.45;9.88;;;;;;;;;;5076984;28;20500;-61
2023/05/04 00:24:44;;;;;;;12.95;9.45;;;;;;;;;;5067464;28;20218;-62
2023/05/04 00:27:10;;;;;;;14.35;9.55;;;;;;;;;;5067244;28;20210;-62
2023/05/04 00:29:35;;;;;;;13.43;9.90;;;;;;;;;;5057015;28;20329;-62
2023/05/04 00:32:00;;;;;;;16.55;9.65;;;;;;;;;;5063068;28;20218;-62
2023/05/04 00:34:26;;;;;;;13.45;9.40;;;;;;;;;;5067941;28;20264;-61
2023/05/04 00:36:51;;;;;;;14.45;9.65;;;;;;;;;;5082563;28;20802;-62
2023/05/04 00:39:16;;;;;;;14.98;9.50;;;;;;;;;;5082382;28;20218;-62
2023/05/04 00:41:42;;;;;;;13.98;9.95;;;;;;;;;;5082898;28;20224;-62
2023/05/04 00:44:08;;;;;;;13.15;9.43;;;;;;;;;;5075449;28;20217;-62
2023/05/04 00:46:33;;;;;;;14.82;10.10;;;;;;;;;;5074132;28;20536;-62
2023/05/04 00:48:58;;;;;;;14.88;10.00;;;;;;;;;;5069507;28;20218;-62
2023/05/04 00:51:24;;;;;;;13.02;9.75;;;;;;;;;;5064862;28;20229;-62
2023/05/04 00:53:49;;;;;;;12.57;9.73;;;;;;;;;;5079357;28;20268;-62
2023/05/04 00:56:15;;;;;;;13.27;9.68;;;;;;;;;;5073312;28;20243;-62
2023/05/04 00:58:40;;;;;;;15.05;9.93;;;;;;;;;;5081003;28;20305;-62
2023/05/04 01:01:05;;;;;;;12.82;9.57;;;;;;;;;;5082348;28;20833;-61
2023/05/04 01:03:30;;;;;;;14.10;9.88;;;;;;;;;;5081735;28;20238;-61
2023/05/04 01:06:07;;;;;;;16.15;9.75;;;;;;;;;;5071122;28;20225;-62
2023/05/04 01:08:33;;;;;;;13.70;9.50;;;;;;;;;;5078382;28;20220;-62
2023/05/04 01:11:00;;;;;;;13.13;9.60;;;;;;;;;;5056334;28;20250;-61
2023/05/04 01:13:25;;;;;;;14.55;9.18;;;;;;;;;;5064473;28;20660;-62
2023/05/04 01:15:51;;;;;;;14.13;10.00;;;;;;;;;;5076093;28;21306;-62
2023/05/04 01:18:16;;;;;;;17.23;10.20;;;;;;;;;;5067306;28;20313;-61
2023/05/04 01:20:41;;;;;;;15.50;9.60;;;;;;;;;;5082528;28;20206;-62
2023/05/04 01:23:07;;;;;;;14.93;10.00;;;;;;;;;;5075133;28;20210;-62
2023/05/04 01:25:35;;;;;;;13.60;9.00;;;;;;;;;;5071060;28;20206;-62
2023/05/04 01:28:05;;;;;;;13.82;9.90;;;;;;;;;;5070087;28;20213;-59
2023/05/04 01:30:34;;;;;;;15.25;9.20;;;;;;;;;;5071710;28;20574;-62
2023/05/04 01:33:00;;;;;;;13.60;9.13;;;;;;;;;;5069780;28;20226;-62
2023/05/04 01:35:25;;;;;;;14.75;9.32;;;;;;;;;;5071174;28;20202;-62
2023/05/04 01:37:51;;;;;;;14.23;9.73;;;;;;;;;;5069277;28;20214;-62
2023/05/04 01:40:16;;;;;;;11.95;9.50;;;;;;;;;;5070568;28;20222;-62
2023/05/04 01:42:41;;;;;;;13.40;9.52;;;;;;;;;;5071852;28;20214;-62
2023/05/04 01:45:07;;;;;;;14.57;9.80;;;;;;;;;;5070226;28;20230;-61
2023/05/04 01:47:32;;;;;;;13.63;9.68;;;;;;;;;;5082884;28;20213;-62
2023/05/04 01:49:57;;;;;;;15.02;9.80;;;;;;;;;;5091597;28;20521;-62
2023/05/04 01:52:23;;;;;;;18.25;9.88;;;;;;;;;;5090478;28;20214;-62
2023/05/04 01:54:48;;;;;;;15.20;9.48;;;;;;;;;;5091604;28;20424;-62
2023/05/04 01:57:13;;;;;;;13.20;9.35;;;;;;;;;;5072822;28;20673;-61
2023/05/04 01:59:39;;;;;;;14.95;10.15;;;;;;;;;;5090813;28;20229;-62
2023/05/04 02:02:04;;;;;;;13.10;9.27;;;;;;;;;;5091092;28;20210;-62
2023/05/04 02:04:29;;;;;;;15.43;9.25;;;;;;;;;;5091654;28;20206;-62
2023/05/04 02:06:55;;;;;;;16.50;9.70;;;;;;;;;;5073795;28;20221;-62
2023/05/04 02:09:20;;;;;;;14.80;9.90;;;;;;;;;;5074888;28;20752;-62
2023/05/04 02:11:45;;;;;;;14.10;9.70;;;;;;;;;;5091194;28;20236;-62
2023/05/04 02:14:11;;;;;;;15.25;10.15;;;;;;;;;;5076720;28;20222;-62
2023/05/04 02:16:36;;;;;;;12.48;9.90;;;;;;;;;;5062000;28;20765;-62
2023/05/04 02:19:01;;;;;;;17.55;10.52;;;;;;;;;;5073837;28;20689;-61
2023/05/04 02:21:26;;;;;;;16.90;10.18;;;;;;;;;;5064022;28;20217;-62
2023/05/04 02:23:52;;;;;;;17.02;10.63;;;;;;;;;;5069898;28;20209;-62
2023/05/04 02:26:17;;;;;;;13.75;9.98;;;;;;;;;;5056773;28;20719;-62
2023/05/04 02:28:42;;;;;;;16.13;10.48;;;;;;;;;;5053263;28;20218;-62
2023/05/04 02:31:07;;;;;;;16.65;9.85;;;;;;;;;;5054819;28;20466;-62
2023/05/04 02:33:33;;;;;;;15.02;10.02;;;;;;;;;;5076076;28;20225;-62
2023/05/04 02:35:58;;;;;;;14.20;9.93;;;;;;;;;;5060414;28;20240;-62
2023/05/04 02:38:24;;;;;;;15.50;9.98;;;;;;;;;;5077419;28;20640;-62
2023/05/04 02:40:49;;;;;;;13.45;9.35;;;;;;;;;;5063751;28;20215;-62
2023/05/04 02:43:15;;;;;;;13.30;9.70;;;;;;;;;;5061073;28;20217;-62
2023/05/04 02:45:40;;;;;;;15.18;9.82;;;;;;;;;;5076881;28;20328;-62
2023/05/04 02:48:05;;;;;;;12.93;9.13;;;;;;;;;;5071426;28;20229;-62
2023/05/04 02:50:31;;;;;;;15.95;9.50;;;;;;;;;;5071913;28;20426;-62
2023/05/04 02:52:56;;;;;;;15.60;9.60;;;;;;;;;;5072505;28;20469;-62
2023/05/04 02:55:21;;;;;;;17.30;10.35;;;;;;;;;;5064927;28;20218;-61
2023/05/04 02:57:46;;;;;;;15.88;10.40;;;;;;;;;;5059879;28;20210;-62
2023/05/04 03:00:12;;;;;;;14.00;10.05;;;;;;;;;;5060228;28;20685;-61
2023/05/04 03:02:37;;;;;;;15.20;9.63;;;;;;;;;;5078575;28;20271;-62
2023/05/04 03:05:03;;;;;;;13.85;10.45;;;;;;;;;;5075398;28;20230;-61
2023/05/04 03:07:28;;;;;;;16.30;11.10;;;;;;;;;;5060219;28;21417;-61
2023/05/04 03:09:53;;;;;;;16.58;10.77;;;;;;;;;;5055610;28;20616;-62
2023/05/04 03:12:19;;;;;;;13.05;9.90;;;;;;;;;;5052091;28;20226;-61
2023/05/04 03:14:45;;;;;;;15.00;10.15;;;;;;;;;;5057808;28;20226;-61
2023/05/04 03:17:10;;;;;;;12.93;9.68;;;;;;;;;;5068661;28;20210;-62
2023/05/04 03:19:35;;;;;;;13.43;9.95;;;;;;;;;;5069739;28;20587;-62
2023/05/04 03:22:00;;;;;;;14.75;11.20;;;;;;;;;;5069506;28;20301;-61
2023/05/04 03:24:26;;;;;;;15.30;9.55;;;;;;;;;;5069219;28;20213;-61
2023/05/04 03:26:51;;;;;;;12.63;9.93;;;;;;;;;;5069823;28;20541;-62
2023/05/04 03:29:16;;;;;;;13.90;10.02;;;;;;;;;;5069310;28;20226;-62
2023/05/04 03:31:42;;;;;;;16.50;10.70;;;;;;;;;;5069531;28;20206;-62
2023/05/04 03:34:08;;;;;;;14.30;10.57;;;;;;;;;;5069071;28;20702;-61
2023/05/04 03:36:34;;;;;;;13.57;10.60;;;;;;;;;;5069570;28;20674;-62
2023/05/04 03:38:59;;;;;;;18.88;10.48;;;;;;;;;;5068862;28;20259;-62
2023/05/04 03:41:24;;;;;;;14.27;10.63;;;;;;;;;;5069210;28;20206;-61
2023/05/04 03:43:50;;;;;;;16.77;10.35;;;;;;;;;;5065163;28;20229;-62
2023/05/04 03:46:15;;;;;;;15.02;10.48;;;;;;;;;;5055606;28;20222;-62
2023/05/04 03:48:40;;;;;;;14.02;10.13;;;;;;;;;;5065492;28;20213;-61
2023/05/04 03:51:06;;;;;;;14.13;10.30;;;;;;;;;;5079330;28;20220;-61
2023/05/04 03:53:34;;;;;;;17.42;10.88;;;;;;;;;;5078456;28;20281;-61
2023/05/04 03:55:59;;;;;;;15.50;10.70;;;;;;;;;;5078326;28;20274;-61
2023/05/04 03:58:25;;;;;;;13.32;10.82;;;;;;;;;;5074678;28;20214;-62
2023/05/04 04:00:50;;;;;;;16.52;11.30;;;;;;;;;;5057569;28;20206;-62
2023/05/04 04:03:15;;;;;;;15.23;11.10;;;;;;;;;;5056167;28;20224;-62
2023/05/04 04:05:41;;;;;;;13.77;10.55;;;;;;;;;;5060781;28;20217;-62
2023/05/04 04:08:06;;;;;;;17.63;11.10;;;;;;;;;;5077098;28;20233;-62
2023/05/04 04:10:31;;;;;;;13.70;11.23;;;;;;;;;;5069547;28;20745;-62
2023/05/04 04:12:57;;;;;;;15.45;10.98;;;;;;;;;;5062945;28;20234;-62
2023/05/04 04:15:22;;;;;;;16.60;11.60;;;;;;;;;;5063262;28;20215;-62
2023/05/04 04:17:47;;;;;;;14.23;10.80;;;;;;;;;;5066727;28;20223;-62
2023/05/04 04:20:12;;;;;;;16.88;11.38;;;;;;;;;;5068499;28;20203;-61
2023/05/04 04:22:38;;;;;;;14.52;11.27;;;;;;;;;;5063611;28;20717;-61
2023/05/04 04:25:03;;;;;;;17.98;11.82;;;;;;;;;;5075564;28;20233;-62
2023/05/04 04:27:28;;;;;;;16.58;11.02;;;;;;;;;;5065742;28;20842;-62
2023/05/04 04:29:54;;;;;;;14.85;11.07;;;;;;;;;;5056123;28;20234;-62
2023/05/04 04:32:20;;;;;;;15.63;11.82;;;;;;;;;;5081229;28;20206;-62
2023/05/04 04:34:45;;;;;;;15.88;11.25;;;;;;;;;;5082713;28;20233;-62
2023/05/04 04:37:10;;;;;;;18.85;11.98;;;;;;;;;;5064700;28;20215;-62
2023/05/04 04:39:36;;;;;;;14.75;11.43;;;;;;;;;;5062556;28;20221;-62
2023/05/04 04:42:01;;;;;;;18.00;10.87;;;;;;;;;;5062155;28;20588;-61
2023/05/04 04:44:26;;;;;;;15.63;12.10;;;;;;;;;;5062905;28;20210;-62
2023/05/04 04:46:52;;;;;;;15.77;11.05;;;;;;;;;;5059487;28;20218;-62
2023/05/04 04:49:17;;;;;;;15.38;11.25;;;;;;;;;;5054429;28;20219;-62
2023/05/04 04:51:42;;;;;;;15.85;10.55;;;;;;;;;;5054778;28;20773;-62
2023/05/04 04:54:08;;;;;;;17.48;11.40;;;;;;;;;;5074215;28;20229;-62
2023/05/04 04:56:33;;;;;;;16.73;10.95;;;;;;;;;;5062101;28;20222;-62
2023/05/04 04:58:59;;;;;;;17.15;10.65;;;;;;;;;;5067176;28;20232;-62
2023/05/04 05:01:25;;;;;;;15.87;12.10;;;;;;;;;;5080782;28;20454;-62
2023/05/04 05:03:50;;;;;;;14.00;10.70;;;;;;;;;;5063897;28;20210;-60
2023/05/04 05:06:15;;;;;;;16.17;10.83;;;;;;;;;;5067748;28;20424;-61
2023/05/04 05:08:42;;;;;;;14.77;11.90;;;;;;;;;;5079289;28;20924;-61
2023/05/04 05:11:08;;;;;;;15.75;9.77;;;;;;;;;;5055456;28;20238;-61
2023/05/04 05:13:33;;;;;;;14.43;9.73;;;;;;;;;;5054368;28;20871;-61
2023/05/04 05:15:58;;;;;;;14.25;9.77;;;;;;;;;;5057436;28;20662;-61
2023/05/04 05:18:23;;;;;;;11.63;9.43;;;;;;;;;;5062725;28;20234;-61
2023/05/04 05:20:49;;;;;;;13.57;9.40;;;;;;;;;;5062547;28;20225;-61
2023/05/04 05:23:15;;;;;;;13.13;9.75;;;;;;;;;;5071757;28;20585;-61
2023/05/04 05:25:40;;;;;;;13.27;9.95;;;;;;;;;;5080422;28;20214;-61
2023/05/04 05:28:06;;;;;;;13.23;9.70;;;;;;;;;;5076711;28;20780;-61
2023/05/04 05:30:31;;;;;;;11.82;9.45;;;;;;;;;;5061836;28;20623;-61
2023/05/04 05:32:56;;;;;;;15.70;9.70;;;;;;;;;;5054771;28;20662;-61
2023/05/04 05:35:22;;;;;;;15.48;9.82;;;;;;;;;;5055349;28;20236;-61
2023/05/04 05:37:48;;;;;;;12.02;9.15;;;;;;;;;;5066856;28;20719;-62
2023/05/04 05:40:14;;;;;;;14.93;9.00;;;;;;;;;;5055560;28;20694;-61
2023/05/04 05:42:41;;;;;;;12.63;9.95;;;;;;;;;;5062012;28;20335;-60
2023/05/04 05:45:07;;;;;;;17.50;10.20;;;;;;;;;;5060693;28;20214;-60
2023/05/04 05:47:33;;;;;;;13.32;10.65;;;;;;;;;;5062156;28;20214;-60
2023/05/04 05:49:58;;;;;;;13.20;10.38;;;;;;;;;;5061868;28;20783;-60
2023/05/04 05:52:23;;;;;;;15.23;9.88;;;;;;;;;;5060459;28;20214;-60
2023/05/04 05:54:49;;;;;;;15.13;10.38;;;;;;;;;;5056916;28;20226;-60
2023/05/04 05:57:14;;;;;;;14.38;10.40;;;;;;;;;;5053469;28;20218;-60
2023/05/04 05:59:41;;;;;;;15.82;10.25;;;;;;;;;;5053812;28;20210;-61
2023/05/04 06:02:06;;;;;;;15.98;10.35;;;;;;;;;;5063717;28;20570;-61
2023/05/04 06:04:32;;;;;;;14.68;9.77;;;;;;;;;;5081331;28;20220;-60
2023/05/04 06:06:57;;;;;;;14.35;9.27;;;;;;;;;;5064630;28;20230;-61
2023/05/04 06:09:22;;;;;;;13.60;10.18;;;;;;;;;;5060951;28;20630;-61
2023/05/04 06:11:48;;;;;;;12.05;9.43;;;;;;;;;;5061256;28;20273;-61
2023/05/04 06:14:13;;;;;;;14.30;10.88;;;;;;;;;;5059971;28;20232;-60
2023/05/04 06:16:38;;;;;;;15.30;10.70;;;;;;;;;;5059025;28;20237;-59
2023/05/04 06:19:04;;;;;;;14.60;10.82;;;;;;;;;;5054074;28;20226;-61
2023/05/04 06:21:29;;;;;;;13.48;10.52;;;;;;;;;;5063612;28;20210;-60
2023/05/04 06:23:55;;;;;;;14.70;9.30;;;;;;;;;;5069507;28;20670;-59
2023/05/04 06:26:21;;;;;;;16.45;10.32;;;;;;;;;;5068174;28;20662;-60
2023/05/04 06:28:47;;;;;;;16.45;10.00;;;;;;;;;;5063844;28;20219;-60
2023/05/04 06:31:12;;;;;;;15.35;10.80;;;;;;;;;;5069159;28;20290;-61
2023/05/04 06:33:38;;;;;;;14.05;10.30;;;;;;;;;;5069733;28;20226;-61
2023/05/04 06:36:03;;;;;;;15.90;10.07;;;;;;;;;;5086655;28;20283;-61
2023/05/04 06:38:29;;;;;;;15.98;10.35;;;;;;;;;;5090681;28;20665;-61
2023/05/04 06:40:54;;;;;;;14.23;9.90;;;;;;;;;;5089574;28;20229;-61
2023/05/04 06:43:19;;;;;;;15.02;9.45;;;;;;;;;;5089803;28;20245;-61
2023/05/04 06:45:45;;;;;;;15.90;10.43;;;;;;;;;;5089734;28;20217;-61
2023/05/04 06:48:10;;;;;;;15.35;10.23;;;;;;;;;;5072459;28;20264;-61
2023/05/04 06:50:36;;;;;;;13.63;10.23;;;;;;;;;;5069790;28;20544;-61
2023/05/04 06:53:02;;;;;;;12.75;9.85;;;;;;;;;;5086096;28;20754;-60
2023/05/04 06:55:27;;;;;;;15.32;10.15;;;;;;;;;;5080256;28;20253;-61
2023/05/04 06:57:52;;;;;;;12.93;9.68;;;;;;;;;;5081220;28;20230;-61
2023/05/04 07:00:18;;;;;;;15.98;10.88;;;;;;;;;;5083976;28;20240;-60
2023/05/04 07:02:43;;;;;;;13.93;10.20;;;;;;;;;;5089723;28;20202;-60
2023/05/04 07:05:08;;;;;;;14.38;10.05;;;;;;;;;;5087996;28;20217;-61
2023/05/04 07:07:34;;;;;;;13.18;9.40;;;;;;;;;;5070122;28;20300;-61
2023/05/04 07:09:59;;;;;;;15.55;10.18;;;;;;;;;;5078674;28;20611;-61
2023/05/04 07:12:25;;;;;;;15.82;10.30;;;;;;;;;;5089600;28;20225;-61
2023/05/04 07:14:50;;;;;;;12.27;9.23;;;;;;;;;;5086175;28;20792;-61
2023/05/04 07:17:15;;;;;;;13.70;9.57;;;;;;;;;;5074421;28;20214;-61
2023/05/04 07:19:41;;;;;;;13.63;9.77;;;;;;;;;;5069797;28;20608;-62
2023/05/04 07:22:06;;;;;;;13.15;9.15;;;;;;;;;;5077333;28;20206;-61
2023/05/04 07:24:31;;;;;;;16.70;9.57;;;;;;;;;;5071084;28;20256;-61
2023/05/04 07:26:56;;;;;;;13.88;8.85;;;;;;;;;;5055574;28;20589;-61
2023/05/04 07:29:22;;;;;;;14.00;10.15;;;;;;;;;;5073738;28;20228;-62
2023/05/04 07:31:47;;;;;;;13.35;9.07;;;;;;;;;;5089225;28;20213;-62
2023/05/04 07:34:12;;;;;;;12.98;9.32;;;;;;;;;;5070549;28;20218;-62
2023/05/04 07:36:38;;;;;;;13.13;9.55;;;;;;;;;;5069855;28;20578;-62
2023/05/04 07:39:03;;;;;;;12.43;9.35;;;;;;;;;;5068628;28;20305;-62
2023/05/04 07:41:28;;;;;;;14.50;11.43;;;;;;;;;;5069452;28;20263;-62
2023/05/04 07:43:54;;;;;;;21.73;14.63;;;;;;;;;;5068946;28;20203;-62
2023/05/04 07:46:19;;;;;;;18.08;10.20;;;;;;;;;;5069157;28;20692;-61
2023/05/04 07:48:44;;;;;;;14.98;10.85;;;;;;;;;;5078848;28;20668;-61
2023/05/04 07:51:11;;;;;;;15.00;9.13;;;;;;;;;;5080745;28;20217;-61
2023/05/04 07:53:37;;;;;;;12.40;8.18;;;;;;;;;;5082943;28;20214;-61
2023/05/04 07:56:07;;;;;;;14.15;10.02;;;;;;;;;;5079704;28;20296;-61
2023/05/04 07:58:32;;;;;;;12.82;9.55;;;;;;;;;;5067522;28;20271;-61
2023/05/04 08:00:57;;;;;;;12.95;8.57;;;;;;;;;;5069429;28;20205;-61
2023/05/04 08:03:23;;;;;;;15.93;9.32;;;;;;;;;;5069102;28;20207;-61
2023/05/04 08:05:48;;;;;;;11.45;8.30;;;;;;;;;;5075818;28;20220;-61
2023/05/04 08:08:13;;;;;;;10.13;7.63;;;;;;;;;;5089223;28;20212;-61
2023/05/04 08:10:39;;;;;;;12.25;8.68;;;;;;;;;;5073711;28;20234;-61
2023/05/04 08:13:05;;;;;;;11.30;8.02;;;;;;;;;;5073437;28;20247;-62
2023/05/04 08:15:30;;;;;;;12.02;8.63;;;;;;;;;;5071994;28;20211;-62
2023/05/04 08:17:56;;;;;;;15.23;8.30;;;;;;;;;;5069079;28;20666;-62
2023/05/04 08:20:21;;;;;;;12.15;8.52;;;;;;;;;;5078726;28;20227;-61
2023/05/04 08:22:46;;;;;;;15.00;7.82;;;;;;;;;;5083564;28;20402;-61
2023/05/04 08:25:12;;;;;;;9.63;7.50;;;;;;;;;;5081019;28;20261;-63
2023/05/04 08:27:37;;;;;;;11.45;7.65;;;;;;;;;;5078979;28;20241;-63
2023/05/04 08:30:03;;;;;;;13.07;7.35;;;;;;;;;;5082459;28;20210;-63
2023/05/04 08:32:29;;;;;;;14.18;8.30;;;;;;;;;;5078219;28;20280;-63
2023/05/04 08:34:54;;;;;;;11.63;7.93;;;;;;;;;;5078970;28;20210;-63
2023/05/04 08:37:20;;;;;;;13.20;7.82;;;;;;;;;;5077535;28;20226;-63
2023/05/04 08:39:45;;;;;;;12.15;7.40;;;;;;;;;;5083022;28;20232;-63
2023/05/04 08:42:10;;;;;;;10.07;7.75;;;;;;;;;;5080988;28;20564;-63
2023/05/04 08:44:35;;;;;;;10.80;8.00;;;;;;;;;;5077610;28;20207;-63
2023/05/04 08:47:02;;;;;;;9.65;7.78;;;;;;;;;;5076895;28;20215;-62
2023/05/04 08:49:28;;;;;;;11.23;7.68;;;;;;;;;;5083291;28;20606;-63
2023/05/04 08:51:53;;;;;;;16.42;10.52;;;;;;;;;;5084197;28;20306;-63
2023/05/04 08:54:18;;;;;;;14.95;9.43;;;;;;;;;;5082777;28;20249;-63
2023/05/04 08:56:44;;;;;;;11.50;7.63;;;;;;;;;;5083653;28;20216;-63
2023/05/04 08:59:10;;;;;;;13.40;8.05;;;;;;;;;;5085083;28;20544;-64
2023/05/04 09:01:36;;;;;;;9.25;6.82;;;;;;;;;;5081683;28;20237;-63
2023/05/04 09:04:02;;;;;;;13.90;7.50;;;;;;;;;;5086079;28;20261;-63
2023/05/04 09:06:27;;;;;;;11.07;7.07;;;;;;;;;;5076401;28;20592;-63
2023/05/04 09:08:52;;;;;;;9.73;6.65;;;;;;;;;;5082038;28;20357;-65
2023/05/04 09:11:18;;;;;;;10.15;6.90;;;;;;;;;;5082266;28;20234;-64
2023/05/04 09:13:43;;;;;;;13.45;8.48;;;;;;;;;;5091703;28;20693;-64
2023/05/04 09:16:10;;;;;;;12.10;7.25;;;;;;;;;;5085847;28;20246;-63
2023/05/04 09:18:42;;;;;;;10.68;7.30;;;;;;;;;;5072086;28;20385;-64
2023/05/04 09:21:08;;;;;;;12.98;7.38;;;;;;;;;;5070322;28;20214;-64
2023/05/04 09:23:43;;;;;;;8.05;6.72;;;;;;;;;;5071282;28;20272;-64
2023/05/04 09:26:09;;;;;;;12.70;6.43;;;;;;;;;;5071542;28;20214;-64
2023/05/04 09:28:35;;;;;;;10.73;6.97;;;;;;;;;;5071983;28;20214;-64
2023/05/04 09:31:01;;;;;;;11.88;6.93;;;;;;;;;;5070532;28;20203;-63
2023/05/04 09:33:27;;;;;;;11.68;6.75;;;;;;;;;;5071236;28;20224;-65
2023/05/04 09:35:52;;;;;;;10.55;7.38;;;;;;;;;;5071975;28;20211;-64
2023/05/04 09:38:26;;;;;;;9.60;6.95;;;;;;;;;;5069300;28;20218;-64
2023/05/04 09:40:52;;;;;;;9.40;7.45;;;;;;;;;;5071734;28;20213;-64
2023/05/04 09:43:17;;;;;;;9.60;6.45;;;;;;;;;;5071197;28;20770;-64
2023/05/04 09:45:43;;;;;;;11.50;6.97;;;;;;;;;;5071057;28;20226;-64
2023/05/04 09:48:15;;;;;;;13.68;7.40;;;;;;;;;;5073834;28;20267;-64
2023/05/04 09:50:46;;;;;;;9.48;6.65;;;;;;;;;;5090929;28;20643;-64
2023/05/04 09:53:11;;;;;;;11.57;6.90;;;;;;;;;;5091217;28;20236;-64
2023/05/04 09:55:36;;;;;;;12.32;6.63;;;;;;;;;;5091403;28;20205;-64
2023/05/04 09:58:02;;;;;;;10.75;6.15;;;;;;;;;;5088255;28;20218;-64
2023/05/04 10:00:27;;;;;;;12.15;6.32;;;;;;;;;;5091427;28;20206;-64
2023/05/04 10:02:52;;;;;;;12.32;6.60;;;;;;;;;;5089977;28;20237;-64
2023/05/04 10:05:20;;;;;;;11.90;6.43;;;;;;;;;;5087133;28;20230;-64
2023/05/04 10:07:45;;;;;;;12.20;7.18;;;;;;;;;;5071284;28;20281;-65
2023/05/04 10:10:12;;;;;;;14.07;7.18;;;;;;;;;;5081725;28;20703;-64
2023/05/04 10:12:37;;;;;;;12.48;6.38;;;;;;;;;;5088897;28;20276;-64
2023/05/04 10:15:05;;;;;;;8.23;6.30;;;;;;;;;;5090927;28;20283;-64
2023/05/04 10:17:34;;;;;;;11.18;6.53;;;;;;;;;;5074798;28;20262;-64
2023/05/04 10:20:06;;;;;;;9.75;6.80;;;;;;;;;;5068952;28;20332;-64
2023/05/04 10:22:40;;;;;;;10.80;7.10;;;;;;;;;;5069388;28;20203;-64
2023/05/04 10:25:22;;;;;;;9.90;7.07;;;;;;;;;;5070042;28;20214;-64
2023/05/04 10:27:48;;;;;;;13.32;6.60;;;;;;;;;;5070122;28;20213;-64
2023/05/04 10:30:14;;;;;;;11.18;6.13;;;;;;;;;;5070323;28;20214;-64
2023/05/04 10:32:40;;;;;;;10.75;6.38;;;;;;;;;;5068622;28;20218;-65
2023/05/04 10:35:05;;;;;;;7.95;6.28;;;;;;;;;;5070034;28;20276;-64
2023/05/04 10:37:31;;;;;;;12.18;6.13;;;;;;;;;;5069302;28;20285;-64
2023/05/04 10:39:57;;;;;;;12.02;6.25;;;;;;;;;;5068194;28;20214;-64
2023/05/04 10:42:22;;;;;;;11.00;6.45;;;;;;;;;;5069960;28;20249;-64
2023/05/04 10:44:48;;;;;;;10.07;5.80;;;;;;;;;;5070659;28;20210;-65
2023/05/04 10:47:13;;;;;;;11.35;6.30;;;;;;;;;;5067947;28;20294;-64
2023/05/04 10:49:38;;;;;;;14.05;6.13;;;;;;;;;;5070165;28;20777;-64
2023/05/04 10:52:10;;;;;;;9.70;6.00;;;;;;;;;;5069501;28;20216;-64
2023/05/04 10:54:36;;;;;;;9.35;6.10;;;;;;;;;;5069480;28;20222;-64
2023/05/04 10:57:02;;;;;;;13.30;6.70;;;;;;;;;;5070055;28;20580;-64
2023/05/04 10:59:27;;;;;;;9.73;5.63;;;;;;;;;;5070008;28;20225;-64
2023/05/04 11:01:53;;;;;;;13.15;5.85;;;;;;;;;;5069433;28;20203;-64
2023/05/04 11:04:19;;;;;;;10.18;6.10;;;;;;;;;;5068049;28;20213;-63
2023/05/04 11:06:54;;;;;;;12.07;5.90;;;;;;;;;;5083937;28;20233;-64
2023/05/04 11:09:19;;;;;;;12.35;6.03;;;;;;;;;;5083098;28;20288;-64
2023/05/04 11:11:44;;;;;;;10.68;5.88;;;;;;;;;;5069971;28;20309;-64
2023/05/04 11:14:10;;;;;;;10.15;5.78;;;;;;;;;;5068110;28;20248;-64
2023/05/04 11:16:35;;;;;;;11.45;5.50;;;;;;;;;;5063968;28;20677;-66
2023/05/04 11:19:07;;;;;;;11.13;5.70;;;;;;;;;;5069587;28;20214;-64
2023/05/04 11:21:32;;;;;;;9.32;5.47;;;;;;;;;;5068277;28;20226;-64
2023/05/04 11:23:58;;;;;;;9.05;5.18;;;;;;;;;;5069192;28;20251;-64
2023/05/04 11:26:23;;;;;;;8.95;6.07;;;;;;;;;;5069509;28;20216;-65
2023/05/04 11:28:49;;;;;;;10.13;5.65;;;;;;;;;;5069348;28;20221;-64
2023/05/04 11:31:14;;;;;;;11.05;5.80;;;;;;;;;;5068967;28;20582;-64
2023/05/04 11:33:47;;;;;;;9.05;5.65;;;;;;;;;;5074460;28;20224;-64
2023/05/04 11:36:12;;;;;;;10.52;6.00;;;;;;;;;;5087382;28;20222;-64
2023/05/04 11:38:37;;;;;;;9.50;5.47;;;;;;;;;;5089933;28;20213;-65
2023/05/04 11:41:02;;;;;;;11.55;5.95;;;;;;;;;;5089520;28;20297;-64
2023/05/04 11:43:28;;;;;;;9.20;5.63;;;;;;;;;;5088966;28;20660;-65
2023/05/04 11:45:54;;;;;;;10.55;5.78;;;;;;;;;;5089595;28;20224;-65
2023/05/04 11:48:20;;;;;;;8.13;6.07;;;;;;;;;;5089251;28;20213;-64
2023/05/04 11:50:46;;;;;;;9.43;5.65;;;;;;;;;;5088800;28;20213;-65
2023/05/04 11:53:12;;;;;;;9.85;5.40;;;;;;;;;;5089269;28;20565;-64
2023/05/04 11:55:38;;;;;;;11.73;6.20;;;;;;;;;;5089774;28;20213;-65
2023/05/04 11:58:04;;;;;;;8.95;6.00;;;;;;;;;;5088533;28;20206;-65
2023/05/04 12:00:37;;;;;;;9.50;5.70;;;;;;;;;;5089478;28;20216;-64
2023/05/04 12:03:04;;;;;;;9.38;6.82;;;;;;;;;;5087975;28;20310;-65
2023/05/04 12:05:30;;;;;;;11.70;6.03;;;;;;;;;;5083933;28;20578;-64
2023/05/04 12:07:55;;;;;;;11.93;6.18;;;;;;;;;;5069434;28;20229;-64
2023/05/04 12:10:27;;;;;;;10.13;5.60;;;;;;;;;;5079981;28;20237;-64
2023/05/04 12:12:52;;;;;;;8.43;5.90;;;;;;;;;;5089015;28;20225;-65
2023/05/04 12:15:26;;;;;;;12.50;6.07;;;;;;;;;;5088996;28;20710;-65
2023/05/04 12:17:51;;;;;;;11.98;6.25;;;;;;;;;;5070214;28;20210;-65
2023/05/04 12:20:21;;;;;;;9.88;6.18;;;;;;;;;;5067694;28;20218;-64
2023/05/04 12:22:47;;;;;;;10.80;5.97;;;;;;;;;;5071886;28;20301;-65
2023/05/04 12:25:13;;;;;;;10.48;5.43;;;;;;;;;;5070686;28;20571;-64
2023/05/04 12:27:39;;;;;;;11.20;6.43;;;;;;;;;;5073238;28;20214;-64
2023/05/04 12:30:05;;;;;;;9.93;5.50;;;;;;;;;;5071140;28;20627;-64
2023/05/04 12:32:30;;;;;;;10.77;5.45;;;;;;;;;;5072312;28;20742;-64
2023/05/04 12:34:55;;;;;;;10.18;5.78;;;;;;;;;;5072568;28;20246;-64
2023/05/04 12:37:21;;;;;;;12.13;5.70;;;;;;;;;;5072365;28;20215;-65
2023/05/04 12:39:46;;;;;;;9.05;5.40;;;;;;;;;;5072259;28;20637;-65
2023/05/04 12:42:11;;;;;;;9.48;5.97;;;;;;;;;;5072302;28;20279;-65
2023/05/04 12:44:37;;;;;;;10.45;6.25;;;;;;;;;;5072768;28;20230;-64
2023/05/04 12:47:02;;;;;;;9.57;6.70;;;;;;;;;;5071298;28;20241;-64
2023/05/04 12:49:27;;;;;;;10.98;6.78;;;;;;;;;;5072849;28;20211;-64
2023/05/04 12:51:52;;;;;;;12.32;6.90;;;;;;;;;;5072342;28;20225;-64
2023/05/04 12:54:18;;;;;;;11.48;6.57;;;;;;;;;;5070059;28;20241;-64
2023/05/04 12:56:43;;;;;;;10.70;6.80;;;;;;;;;;5072535;28;20238;-64
2023/05/04 12:59:09;;;;;;;14.20;7.25;;;;;;;;;;5072069;28;20230;-65
2023/05/04 13:01:34;;;;;;;14.13;7.20;;;;;;;;;;5071323;28;20214;-64
2023/05/04 13:03:59;;;;;;;12.45;7.15;;;;;;;;;;5071223;28;20211;-64
2023/05/04 13:06:25;;;;;;;14.70;7.63;;;;;;;;;;5084065;28;20209;-64
2023/05/04 13:08:50;;;;;;;12.38;7.07;;;;;;;;;;5091510;28;20213;-65
2023/05/04 13:11:18;;;;;;;10.35;6.80;;;;;;;;;;5071606;28;20233;-64
2023/05/04 13:13:43;;;;;;;12.88;6.95;;;;;;;;;;5072219;28;20222;-64
2023/05/04 13:16:09;;;;;;;11.75;7.07;;;;;;;;;;5075883;28;20668;-64
2023/05/04 13:18:34;;;;;;;13.40;6.70;;;;;;;;;;5092411;28;20205;-64
2023/05/04 13:20:59;;;;;;;12.73;6.63;;;;;;;;;;5092075;28;20282;-64
2023/05/04 13:23:25;;;;;;;12.60;6.90;;;;;;;;;;5091210;28;20296;-64
2023/05/04 13:25:50;;;;;;;11.10;6.22;;;;;;;;;;5092476;28;20243;-64
2023/05/04 13:28:16;;;;;;;9.65;6.70;;;;;;;;;;5091832;28;20206;-64
2023/05/04 13:30:41;;;;;;;12.23;7.07;;;;;;;;;;5091518;28;20217;-65
2023/05/04 13:33:06;;;;;;;9.20;6.55;;;;;;;;;;5089073;28;20627;-64
2023/05/04 13:35:32;;;;;;;9.20;6.28;;;;;;;;;;5071386;28;20234;-64
2023/05/04 13:37:57;;;;;;;10.57;7.30;;;;;;;;;;5071593;28;20211;-65
2023/05/04 13:40:22;;;;;;;13.93;8.00;;;;;;;;;;5071415;28;20198;-65
2023/05/04 13:42:47;;;;;;;13.07;7.88;;;;;;;;;;5070936;28;20211;-64
2023/05/04 13:45:13;;;;;;;12.00;7.80;;;;;;;;;;5069911;28;20293;-64
2023/05/04 13:47:39;;;;;;;14.77;7.95;;;;;;;;;;5071620;28;20337;-64
2023/05/04 13:50:05;;;;;;;11.13;7.32;;;;;;;;;;5070407;28;20214;-64
2023/05/04 13:52:31;;;;;;;15.05;7.97;;;;;;;;;;5071242;28;20252;-64
2023/05/04 13:54:57;;;;;;;15.95;8.52;;;;;;;;;;5071712;28;20288;-64
2023/05/04 13:57:22;;;;;;;11.57;8.05;;;;;;;;;;5072559;28;20368;-64
2023/05/04 13:59:48;;;;;;;14.90;8.80;;;;;;;;;;5064706;28;20567;-64
2023/05/04 14:02:13;;;;;;;13.38;8.43;;;;;;;;;;5056045;28;20224;-64
2023/05/04 14:04:38;;;;;;;12.88;8.77;;;;;;;;;;5059551;28;20214;-64
2023/05/04 14:07:03;;;;;;;14.52;9.75;;;;;;;;;;5073336;28;20210;-64
2023/05/04 14:09:29;;;;;;;13.77;9.73;;;;;;;;;;5066356;28;20654;-64
2023/05/04 14:11:54;;;;;;;15.25;9.65;;;;;;;;;;5064903;28;20237;-64
2023/05/04 14:14:20;;;;;;;12.70;9.23;;;;;;;;;;5066318;28;20260;-64
2023/05/04 14:16:46;;;;;;;15.82;9.77;;;;;;;;;;5074099;28;20638;-64
2023/05/04 14:19:11;;;;;;;14.32;8.93;;;;;;;;;;5063768;28;20215;-64